Time;durP1;ratioP1;P1;durP2;ratioP2;P2;SDS_P1;SDS_P2;PMS_P1;PMS_P2;Temp;Humidity;BMP_temperature;BMP_pressure;BME280_temperature;BME280_humidity;BME280_pressure;Samples;Min_cycle;Max_cycle;Signal;HPM_P1;HPM_P2
2023/11/03 15:35:27;;;;;;;29.73;12.77;;;22.50;47.10;;;;;;5081040;28;20955;-59
2023/11/03 15:37:58;;;;;;;35.33;27.90;;;22.40;47.10;;;;;;5059943;28;21100;-59
2023/11/03 15:40:29;;;;;;;43.42;37.50;;;22.30;47.30;;;;;;5081371;28;20258;-56
2023/11/03 15:42:57;;;;;;;113.72;97.70;;;22.30;47.40;;;;;;5093240;28;20270;-58
2023/11/03 15:45:29;;;;;;;109.70;94.95;;;22.20;47.70;;;;;;5074170;28;20323;-60
2023/11/03 15:48:00;;;;;;;93.50;82.43;;;22.20;47.90;;;;;;5077221;28;20200;-56
2023/11/03 15:50:37;;;;;;;80.28;67.45;;;22.20;48.00;;;;;;5101517;28;20213;-54
2023/11/03 15:55:53;;;;;;;117.75;88.72;;;22.10;47.90;;;;;;5097058;28;20232;-55
2023/11/03 15:58:20;;;;;;;134.05;98.68;;;22.10;47.90;;;;;;5057196;28;20581;-61
2023/11/03 16:00:54;;;;;;;114.38;87.00;;;22.10;47.90;;;;;;5091345;28;20216;-60
2023/11/03 16:03:23;;;;;;;100.05;71.10;;;22.10;47.90;;;;;;5097021;28;20206;-55
2023/11/03 16:05:54;;;;;;;81.13;60.55;;;22.10;47.90;;;;;;5072191;28;20229;-57
2023/11/03 16:08:23;;;;;;;72.05;50.85;;;22.20;48.00;;;;;;5050557;28;20210;-57
2023/11/03 16:10:54;;;;;;;59.65;42.95;;;22.20;48.00;;;;;;5088018;28;20293;-59
2023/11/03 16:13:22;;;;;;;55.40;42.47;;;22.30;48.10;;;;;;5082910;28;20186;-58
2023/11/03 16:15:52;;;;;;;51.67;35.05;;;22.30;48.10;;;;;;5088686;28;20252;-57
2023/11/03 16:18:21;;;;;;;44.35;33.25;;;22.30;48.10;;;;;;5093758;28;20228;-59
2023/11/03 16:20:53;;;;;;;39.63;30.30;;;22.30;48.10;;;;;;5016892;28;20605;-56
2023/11/03 16:23:27;;;;;;;41.47;26.13;;;22.30;48.10;;;;;;5092067;28;20735;-58
2023/11/03 16:25:55;;;;;;;30.92;23.00;;;22.40;48.10;;;;;;5099151;28;21450;-53
2023/11/03 16:28:33;;;;;;;29.55;21.70;;;22.30;48.10;;;;;;5085729;28;20229;-62
2023/11/03 16:31:00;;;;;;;30.85;20.05;;;22.40;48.20;;;;;;5042869;28;20872;-62
2023/11/03 16:33:29;;;;;;;26.05;18.60;;;22.30;48.20;;;;;;5089495;28;20297;-62
2023/11/03 16:36:00;;;;;;;24.40;17.05;;;22.30;48.30;;;;;;5019363;28;20708;-62
2023/11/03 16:38:37;;;;;;;29.60;16.55;;;22.30;48.30;;;;;;5055788;28;20190;-60
2023/11/03 16:41:08;;;;;;;19.98;15.52;;;22.30;48.60;;;;;;5051892;28;20225;-58
2023/11/03 16:43:40;;;;;;;21.33;14.20;;;22.30;48.60;;;;;;5029482;28;20231;-55
2023/11/03 16:49:29;;;;;;;25.52;13.85;;;22.20;49.00;;;;;;5046878;28;20795;-56
2023/11/03 16:52:01;;;;;;;22.38;12.70;;;22.10;49.00;;;;;;4976030;28;20219;-61
2023/11/03 16:54:31;;;;;;;19.67;12.45;;;22.10;49.30;;;;;;5049273;28;20290;-62
2023/11/03 16:56:59;;;;;;;17.88;11.80;;;22.00;49.50;;;;;;5027746;28;20214;-59
2023/11/03 16:59:28;;;;;;;22.77;12.20;;;22.00;49.80;;;;;;5057112;28;20565;-60
2023/11/03 17:01:59;;;;;;;18.58;11.48;;;21.90;50.20;;;;;;5051090;28;20223;-59
2023/11/03 17:04:26;;;;;;;15.80;11.15;;;21.90;50.10;;;;;;5049684;28;20672;-62
2023/11/03 17:06:53;;;;;;;21.73;11.02;;;21.90;50.50;;;;;;5069931;28;20302;-61
2023/11/03 17:09:21;;;;;;;17.10;10.30;;;22.00;50.60;;;;;;5072938;28;20216;-60
2023/11/03 17:11:51;;;;;;;14.50;9.52;;;22.10;50.60;;;;;;5071764;28;20258;-62
2023/11/03 17:14:20;;;;;;;16.98;8.82;;;22.10;50.40;;;;;;5069161;28;20187;-61
2023/11/03 17:16:46;;;;;;;12.65;8.40;;;22.10;50.30;;;;;;5053610;28;20223;-61
2023/11/03 17:19:13;;;;;;;13.07;8.65;;;22.20;50.40;;;;;;5053577;28;20183;-62
2023/11/03 17:21:42;;;;;;;11.48;8.30;;;22.10;50.50;;;;;;5053308;28;20222;-61
2023/11/03 17:24:11;;;;;;;13.80;7.70;;;22.10;51.10;;;;;;5053261;28;20188;-62
2023/11/03 17:26:38;;;;;;;11.85;7.70;;;22.10;50.50;;;;;;5053526;28;20318;-62
2023/11/03 17:29:09;;;;;;;13.32;7.38;;;22.10;50.50;;;;;;5053210;28;20279;-62
2023/11/03 17:31:36;;;;;;;16.20;7.78;;;22.10;50.50;;;;;;5053359;28;20222;-62
2023/11/03 17:34:05;;;;;;;10.52;6.85;;;22.10;50.60;;;;;;5053979;28;20653;-62
2023/11/03 17:36:32;;;;;;;13.50;7.55;;;22.10;50.60;;;;;;5093211;28;20278;-62
2023/11/03 17:38:59;;;;;;;16.90;6.53;;;22.10;50.60;;;;;;5093367;28;20610;-61
2023/11/03 17:41:26;;;;;;;10.52;6.65;;;22.10;50.60;;;;;;5093373;28;20245;-62
2023/11/03 17:43:53;;;;;;;14.13;6.78;;;22.10;50.60;;;;;;5092887;28;20273;-62
2023/11/03 17:46:21;;;;;;;14.63;6.63;;;22.10;50.60;;;;;;5093397;28;20257;-61
2023/11/03 17:48:49;;;;;;;8.07;5.68;;;22.00;50.50;;;;;;5093294;28;20196;-62
2023/11/03 17:51:16;;;;;;;10.65;6.55;;;22.00;50.50;;;;;;5092915;28;20210;-61
2023/11/03 17:53:43;;;;;;;7.03;5.40;;;22.00;50.50;;;;;;5092983;28;20627;-62
2023/11/03 17:56:10;;;;;;;9.93;5.65;;;22.00;50.50;;;;;;5092890;28;20218;-62
2023/11/03 17:58:38;;;;;;;12.02;5.20;;;22.00;50.50;;;;;;5092503;28;20647;-61
2023/11/03 18:01:04;;;;;;;12.80;5.50;;;22.00;50.40;;;;;;5092920;28;20214;-60
2023/11/03 18:03:34;;;;;;;9.05;5.90;;;21.90;50.50;;;;;;5092757;28;20635;-61
2023/11/03 18:06:02;;;;;;;8.35;5.10;;;21.90;50.40;;;;;;5092255;28;20225;-61
2023/11/03 18:08:29;;;;;;;12.98;5.53;;;21.90;50.50;;;;;;5093000;28;20194;-60
2023/11/03 18:10:56;;;;;;;14.25;4.97;;;22.00;50.50;;;;;;5093185;28;20210;-61
2023/11/03 18:13:23;;;;;;;15.88;5.38;;;21.90;50.40;;;;;;5092299;28;20647;-62
2023/11/03 18:15:50;;;;;;;6.45;4.47;;;22.00;50.40;;;;;;5092823;28;20213;-62
2023/11/03 18:18:17;;;;;;;7.55;4.53;;;22.00;50.40;;;;;;5092446;28;20590;-62
2023/11/03 18:20:45;;;;;;;7.50;4.95;;;22.00;50.30;;;;;;5092159;28;20561;-61
2023/11/03 18:23:13;;;;;;;10.77;4.03;;;22.00;50.30;;;;;;5092875;28;20186;-62
2023/11/03 18:25:40;;;;;;;10.40;4.53;;;22.00;50.20;;;;;;5092583;28;20252;-61
2023/11/03 18:28:11;;;;;;;6.97;4.15;;;21.90;50.10;;;;;;5092366;28;20218;-60
2023/11/03 18:30:38;;;;;;;13.50;4.90;;;21.90;50.10;;;;;;5092231;28;20186;-59
2023/11/03 18:33:05;;;;;;;10.25;4.28;;;21.90;50.10;;;;;;5092250;28;20277;-62
2023/11/03 18:35:31;;;;;;;12.13;4.15;;;22.00;50.10;;;;;;5092007;28;20230;-60
2023/11/03 18:38:00;;;;;;;11.10;4.40;;;21.90;50.00;;;;;;5092753;28;20214;-62
2023/11/03 18:40:28;;;;;;;6.60;3.58;;;21.90;50.00;;;;;;5092164;28;20190;-62
2023/11/03 18:42:55;;;;;;;11.43;4.20;;;21.90;49.90;;;;;;5092581;28;20217;-61
2023/11/03 18:45:23;;;;;;;12.60;4.00;;;21.90;49.90;;;;;;5092383;28;20213;-58
2023/11/03 18:47:50;;;;;;;7.65;3.65;;;21.90;50.10;;;;;;5092110;28;20605;-61
2023/11/03 18:50:19;;;;;;;12.38;3.72;;;21.90;49.90;;;;;;5092106;28;20288;-61
2023/11/03 18:52:47;;;;;;;12.05;3.75;;;21.80;49.50;;;;;;5092626;28;20297;-61
2023/11/03 18:55:16;;;;;;;15.15;4.00;;;21.70;49.40;;;;;;5092374;28;20201;-63
2023/11/03 18:57:43;;;;;;;13.95;3.72;;;21.70;49.30;;;;;;5091911;28;20300;-62
2023/11/03 19:00:12;;;;;;;9.30;3.90;;;21.60;49.50;;;;;;5092396;28;20186;-62
2023/11/03 19:02:40;;;;;;;6.95;3.20;;;21.50;49.50;;;;;;5092239;28;20226;-61
2023/11/03 19:05:08;;;;;;;9.18;3.35;;;21.40;49.50;;;;;;5091923;28;20190;-62
2023/11/03 19:07:36;;;;;;;6.32;3.00;;;21.40;49.60;;;;;;5092676;28;20221;-60
2023/11/03 19:10:05;;;;;;;6.45;3.15;;;21.30;49.60;;;;;;5091854;28;20686;-62
2023/11/03 19:12:33;;;;;;;9.85;3.05;;;21.30;49.30;;;;;;5091968;28;20225;-62
2023/11/03 19:15:00;;;;;;;6.75;2.70;;;21.20;49.40;;;;;;5095552;28;20198;-61
2023/11/03 19:17:27;;;;;;;6.63;3.13;;;21.10;49.30;;;;;;5096015;28;20218;-62
2023/11/03 19:19:54;;;;;;;5.68;2.72;;;21.10;49.30;;;;;;5095764;28;20190;-61
2023/11/03 19:22:21;;;;;;;6.85;2.97;;;21.00;49.40;;;;;;5096245;28;20224;-61
2023/11/03 19:24:48;;;;;;;5.65;2.45;;;21.00;49.40;;;;;;5096152;28;20193;-58
2023/11/03 19:27:15;;;;;;;5.72;2.80;;;21.00;49.20;;;;;;5095737;28;20229;-60
2023/11/03 19:29:44;;;;;;;5.35;2.85;;;20.90;49.20;;;;;;5095929;28;20264;-61
2023/11/03 19:32:11;;;;;;;5.53;2.58;;;20.90;49.30;;;;;;5095956;28;20214;-60
2023/11/03 19:34:43;;;;;;;9.15;2.75;;;20.80;49.20;;;;;;5095269;28;20229;-62
2023/11/03 19:37:10;;;;;;;5.25;2.70;;;20.80;49.20;;;;;;5095597;28;20619;-61
2023/11/03 19:39:38;;;;;;;5.45;2.05;;;20.70;49.20;;;;;;5095466;28;20191;-61
2023/11/03 19:42:07;;;;;;;4.85;2.55;;;20.70;49.20;;;;;;5095645;28;20214;-60
2023/11/03 19:44:34;;;;;;;6.57;2.63;;;20.70;49.70;;;;;;5095419;28;20714;-61
2023/11/03 19:47:04;;;;;;;8.43;2.72;;;20.70;49.10;;;;;;5095388;28;20590;-59
2023/11/03 19:49:33;;;;;;;4.55;2.30;;;20.70;49.10;;;;;;5095047;28;20187;-60
2023/11/03 19:52:00;;;;;;;6.88;2.45;;;20.60;49.10;;;;;;5095658;28;20225;-59
2023/11/03 19:54:27;;;;;;;6.53;2.45;;;20.60;49.10;;;;;;5095538;28;20276;-62
2023/11/03 19:56:54;;;;;;;5.70;2.70;;;20.60;49.10;;;;;;5094806;28;20721;-61
2023/11/03 19:59:22;;;;;;;8.25;3.00;;;20.60;49.10;;;;;;5095448;28;20260;-61
2023/11/03 20:01:49;;;;;;;4.15;2.00;;;20.50;49.00;;;;;;5095528;28;20217;-60
2023/11/03 20:04:17;;;;;;;3.60;2.10;;;20.50;48.90;;;;;;5094702;28;20192;-61
2023/11/03 20:06:44;;;;;;;5.38;2.50;;;20.50;48.90;;;;;;5095273;28;20230;-61
2023/11/03 20:09:11;;;;;;;6.57;2.50;;;20.50;49.70;;;;;;5094957;28;20186;-59
2023/11/03 20:11:38;;;;;;;5.70;2.30;;;20.40;48.90;;;;;;5094625;28;20210;-61
2023/11/03 20:14:05;;;;;;;5.18;2.55;;;20.50;49.00;;;;;;5094864;28;20182;-59
2023/11/03 20:16:34;;;;;;;4.38;1.90;;;20.40;48.90;;;;;;5095182;28;20308;-61
2023/11/03 20:19:01;;;;;;;4.32;2.17;;;20.40;49.00;;;;;;5094704;28;20194;-59
2023/11/03 20:21:29;;;;;;;5.93;2.30;;;20.40;48.90;;;;;;5094692;28;20713;-59
2023/11/03 20:23:56;;;;;;;5.85;2.20;;;20.40;48.90;;;;;;5094926;28;20196;-61
2023/11/03 20:26:23;;;;;;;3.85;2.00;;;20.30;48.80;;;;;;5094391;28;20230;-60
2023/11/03 20:28:50;;;;;;;5.72;2.47;;;20.30;48.80;;;;;;5094928;28;20186;-60
2023/11/03 20:31:17;;;;;;;6.25;1.88;;;20.30;48.90;;;;;;5094826;28;20305;-58
2023/11/03 20:33:46;;;;;;;4.90;2.25;;;20.30;48.80;;;;;;5094507;28;20190;-57
2023/11/03 20:36:13;;;;;;;4.10;2.08;;;20.30;48.90;;;;;;5094364;28;20223;-60
2023/11/03 20:38:41;;;;;;;5.40;2.45;;;20.30;48.80;;;;;;5094643;28;20559;-59
2023/11/03 20:41:08;;;;;;;6.50;2.25;;;20.30;48.90;;;;;;5094316;28;20214;-61
2023/11/03 20:43:36;;;;;;;3.15;1.77;;;20.20;48.70;;;;;;5094312;28;20569;-60
2023/11/03 20:46:04;;;;;;;4.43;2.25;;;20.20;48.70;;;;;;5094081;28;20217;-60
2023/11/03 20:48:32;;;;;;;5.20;2.25;;;20.20;48.80;;;;;;5093885;28;20200;-63
2023/11/03 20:51:01;;;;;;;6.32;2.20;;;20.20;48.80;;;;;;5094343;28;20190;-60
2023/11/03 20:53:28;;;;;;;3.80;1.83;;;20.20;48.80;;;;;;5094659;28;20186;-61
2023/11/03 20:55:56;;;;;;;6.20;2.10;;;20.20;48.70;;;;;;5093710;28;20718;-61
2023/11/03 20:58:23;;;;;;;3.42;2.00;;;20.20;48.70;;;;;;5094295;28;20590;-61
2023/11/03 21:00:52;;;;;;;5.18;1.73;;;20.10;48.70;;;;;;5093954;28;20186;-61
2023/11/03 21:03:19;;;;;;;4.28;1.95;;;20.10;48.70;;;;;;5094201;28;20297;-60
2023/11/03 21:05:46;;;;;;;5.78;1.75;;;20.10;48.70;;;;;;5093782;28;20635;-61
2023/11/03 21:08:13;;;;;;;5.25;2.20;;;20.10;48.70;;;;;;5094032;28;20217;-56
2023/11/03 21:10:40;;;;;;;3.55;1.70;;;20.10;48.60;;;;;;5093731;28;20186;-62
2023/11/03 21:13:08;;;;;;;4.07;1.90;;;20.10;48.70;;;;;;5093888;28;20694;-61
2023/11/03 21:15:36;;;;;;;6.70;2.30;;;20.10;48.70;;;;;;5094223;28;20625;-61
2023/11/03 21:18:06;;;;;;;4.00;2.10;;;20.10;48.70;;;;;;5093603;28;20256;-57
2023/11/03 21:20:33;;;;;;;4.38;1.98;;;20.10;48.70;;;;;;5093518;28;20225;-64
2023/11/03 21:23:01;;;;;;;4.20;2.05;;;20.10;48.70;;;;;;5093622;28;20777;-59
2023/11/03 21:25:28;;;;;;;3.80;1.83;;;20.00;48.60;;;;;;5093484;28;20190;-60
2023/11/03 21:27:55;;;;;;;4.22;1.88;;;20.00;48.60;;;;;;5093813;28;20600;-60
2023/11/03 21:30:23;;;;;;;6.00;2.08;;;20.00;48.60;;;;;;5093487;28;20186;-61
2023/11/03 21:32:50;;;;;;;4.13;1.70;;;20.00;48.60;;;;;;5093316;28;20217;-62
2023/11/03 21:35:17;;;;;;;6.75;2.25;;;20.00;48.70;;;;;;5093377;28;20232;-59
2023/11/03 21:37:44;;;;;;;4.63;2.13;;;20.00;48.60;;;;;;5093134;28;20221;-60
2023/11/03 21:40:14;;;;;;;6.70;2.20;;;20.00;48.60;;;;;;5093144;28;20264;-60
2023/11/03 21:42:41;;;;;;;5.82;2.17;;;20.00;48.60;;;;;;5093597;28;20274;-62
2023/11/03 21:45:09;;;;;;;4.25;2.10;;;20.00;48.60;;;;;;5093421;28;20277;-61
2023/11/03 21:47:38;;;;;;;6.53;1.75;;;20.00;48.60;;;;;;5092999;28;20320;-61
2023/11/03 21:50:06;;;;;;;3.28;1.70;;;20.00;48.60;;;;;;5093016;28;20656;-57
2023/11/03 21:52:33;;;;;;;2.58;1.67;;;19.90;48.60;;;;;;5092238;28;20297;-59
2023/11/03 21:55:00;;;;;;;7.32;2.00;;;19.90;48.50;;;;;;5113354;28;20191;-61
2023/11/03 21:57:27;;;;;;;6.38;1.73;;;19.90;48.60;;;;;;5113376;28;20223;-61
2023/11/03 21:59:54;;;;;;;4.50;1.60;;;19.90;48.50;;;;;;5113481;28;20197;-61
2023/11/03 22:02:21;;;;;;;6.07;2.22;;;19.90;48.50;;;;;;5113147;28;20304;-60
2023/11/03 22:04:49;;;;;;;3.53;1.40;;;19.90;48.50;;;;;;5113263;28;20186;-61
2023/11/03 22:07:16;;;;;;;5.38;1.90;;;19.90;48.50;;;;;;5113035;28;20229;-57
2023/11/03 22:09:44;;;;;;;4.55;1.70;;;19.90;48.50;;;;;;5112918;28;20185;-60
2023/11/03 22:12:11;;;;;;;4.95;1.70;;;19.90;48.50;;;;;;5112954;28;20217;-61
2023/11/03 22:14:39;;;;;;;6.82;1.95;;;19.90;48.50;;;;;;5113355;28;20268;-59
2023/11/03 22:17:06;;;;;;;3.47;1.55;;;19.90;48.60;;;;;;5112832;28;20216;-60
2023/11/03 22:19:33;;;;;;;4.22;1.92;;;19.90;48.50;;;;;;5113116;28;20192;-59
2023/11/03 22:22:02;;;;;;;5.38;1.85;;;19.80;48.40;;;;;;5113139;28;20217;-60
2023/11/03 22:24:29;;;;;;;4.60;1.90;;;19.80;48.50;;;;;;5112503;28;20647;-60
2023/11/03 22:26:56;;;;;;;3.47;1.83;;;19.80;48.40;;;;;;5113338;28;20228;-61
2023/11/03 22:29:24;;;;;;;4.43;1.67;;;19.80;48.50;;;;;;5112666;28;20200;-61
2023/11/03 22:31:51;;;;;;;2.95;1.20;;;19.80;48.60;;;;;;5112693;28;20301;-61
2023/11/03 22:34:19;;;;;;;6.18;1.92;;;19.80;48.50;;;;;;5112426;28;20181;-60
2023/11/03 22:36:46;;;;;;;2.80;1.45;;;19.80;48.50;;;;;;5113120;28;20224;-60
2023/11/03 22:39:18;;;;;;;3.55;1.60;;;19.80;48.50;;;;;;5112950;28;20304;-61
2023/11/03 22:41:46;;;;;;;2.35;1.50;;;19.80;48.50;;;;;;5112881;28;20220;-62
2023/11/03 22:44:13;;;;;;;5.65;1.85;;;19.80;49.10;;;;;;5112845;28;20621;-61
2023/11/03 22:46:40;;;;;;;3.33;1.77;;;19.80;48.50;;;;;;5112358;28;20239;-60
2023/11/03 22:49:08;;;;;;;4.47;1.67;;;19.70;48.50;;;;;;5111773;28;20276;-62
2023/11/03 22:51:35;;;;;;;3.03;1.63;;;19.70;48.50;;;;;;5112699;28;20303;-59
2023/11/03 22:54:02;;;;;;;3.88;1.80;;;19.70;49.10;;;;;;5112686;28;20199;-61
2023/11/03 22:56:31;;;;;;;3.70;1.73;;;19.70;48.50;;;;;;5112396;28;20647;-60
2023/11/03 22:58:58;;;;;;;3.35;1.70;;;19.70;48.50;;;;;;5113004;28;20189;-60
2023/11/03 23:01:24;;;;;;;4.10;1.83;;;19.70;48.50;;;;;;5112222;28;20204;-55
2023/11/03 23:03:51;;;;;;;7.88;1.90;;;19.70;48.50;;;;;;5112356;28;20667;-59
2023/11/03 23:06:19;;;;;;;4.78;1.80;;;19.70;48.50;;;;;;5112497;28;20213;-59
2023/11/03 23:08:47;;;;;;;5.68;1.60;;;19.60;48.40;;;;;;5111897;28;20189;-61
2023/11/03 23:11:15;;;;;;;4.63;1.63;;;19.60;48.40;;;;;;5112530;28;20192;-57
2023/11/03 23:13:44;;;;;;;3.92;1.67;;;19.60;48.40;;;;;;5112836;28;20274;-61
2023/11/03 23:16:11;;;;;;;4.43;1.38;;;19.70;48.50;;;;;;5112240;28;20191;-57
2023/11/03 23:18:38;;;;;;;4.90;2.08;;;19.60;48.50;;;;;;5112463;28;20299;-60
2023/11/03 23:21:08;;;;;;;6.63;1.67;;;19.60;48.50;;;;;;5112118;28;20182;-60
2023/11/03 23:23:36;;;;;;;2.90;1.33;;;19.60;48.50;;;;;;5112378;28;20225;-61
2023/11/03 23:26:04;;;;;;;4.03;1.60;;;19.60;48.50;;;;;;5112150;28;20598;-61
2023/11/03 23:28:30;;;;;;;5.78;2.22;;;19.60;48.50;;;;;;5112482;28;20231;-59
2023/11/03 23:30:59;;;;;;;3.92;1.48;;;19.60;48.50;;;;;;5112151;28;20288;-61
2023/11/03 23:33:26;;;;;;;5.57;1.70;;;19.60;48.50;;;;;;5112368;28;20219;-60
2023/11/03 23:35:53;;;;;;;5.90;1.77;;;19.60;48.60;;;;;;5112063;28;20221;-60
2023/11/03 23:38:20;;;;;;;4.22;1.80;;;19.60;48.60;;;;;;5112157;28;20326;-58
2023/11/03 23:40:47;;;;;;;3.35;1.60;;;19.50;48.50;;;;;;5112351;28;20219;-57
2023/11/03 23:43:14;;;;;;;4.30;1.20;;;19.60;48.60;;;;;;5112497;28;20341;-61
2023/11/03 23:45:40;;;;;;;4.70;1.77;;;19.50;48.50;;;;;;5111931;28;20264;-59
2023/11/03 23:48:09;;;;;;;2.25;1.30;;;19.50;48.50;;;;;;5112190;28;20256;-62
2023/11/03 23:50:36;;;;;;;7.22;1.75;;;19.50;48.60;;;;;;5111817;28;20643;-56
2023/11/03 23:53:04;;;;;;;5.18;1.83;;;19.60;48.70;;;;;;5111722;28;20690;-60
2023/11/03 23:55:31;;;;;;;2.95;1.27;;;19.60;48.70;;;;;;5112210;28;20273;-56
2023/11/03 23:57:58;;;;;;;4.22;1.20;;;19.50;48.70;;;;;;5111784;28;20776;-59
